Time;durP1;ratioP1;P1;durP2;ratioP2;P2;SDS_P1;SDS_P2;PMS_P1;PMS_P2;Temp;Humidity;BMP_temperature;BMP_pressure;BME280_temperature;BME280_humidity;BME280_pressure;Samples;Min_cycle;Max_cycle;Signal;HPM_P1;HPM_P2
2022/11/15 00:00:47;;;;;;;23.37;18.50;;;9.30;99.90;;;;;;5119211;27;20469;-67
2022/11/15 00:03:15;;;;;;;27.33;18.87;;;9.30;99.90;;;;;;5116274;27;20456;-68
2022/11/15 00:05:42;;;;;;;20.07;17.93;;;9.30;99.90;;;;;;5114694;27;20515;-68
2022/11/15 00:08:10;;;;;;;24.60;19.33;;;9.40;99.90;;;;;;5119652;27;20923;-68
2022/11/15 00:10:37;;;;;;;23.90;19.53;;;9.50;99.90;;;;;;5121996;27;20514;-68
2022/11/15 00:13:07;;;;;;;28.53;20.23;;;9.50;99.90;;;;;;5123359;27;21127;-68
2022/11/15 00:15:36;;;;;;;22.43;18.10;;;9.50;99.90;;;;;;5124026;27;20846;-70
2022/11/15 00:18:04;;;;;;;26.67;19.37;;;9.60;99.90;;;;;;5120163;27;20467;-69
2022/11/15 00:20:32;;;;;;;24.33;18.10;;;9.60;99.90;;;;;;5116681;27;20822;-68
2022/11/15 00:22:58;;;;;;;26.10;18.60;;;9.70;99.90;;;;;;5120266;27;20673;-71
2022/11/15 00:25:25;;;;;;;20.57;17.80;;;9.70;99.90;;;;;;5124411;27;20465;-67
2022/11/15 00:27:56;;;;;;;25.87;18.30;;;9.70;99.90;;;;;;5124550;27;20528;-67
2022/11/15 00:30:23;;;;;;;23.30;18.47;;;9.70;99.90;;;;;;5117083;27;20464;-69
2022/11/15 00:32:50;;;;;;;22.50;17.23;;;9.70;99.90;;;;;;5121649;27;20513;-67
2022/11/15 00:35:19;;;;;;;22.03;18.13;;;9.80;99.90;;;;;;5122096;27;20848;-68
2022/11/15 00:37:47;;;;;;;23.80;19.00;;;9.80;99.90;;;;;;5113491;27;20467;-68
2022/11/15 00:40:15;;;;;;;24.50;18.70;;;9.80;99.90;;;;;;5122064;27;20516;-69
2022/11/15 00:42:43;;;;;;;22.70;17.37;;;9.80;99.90;;;;;;5122015;27;20552;-68
2022/11/15 00:45:10;;;;;;;21.20;18.10;;;9.80;99.90;;;;;;5119389;27;20974;-68
2022/11/15 00:47:37;;;;;;;28.10;18.10;;;9.80;99.90;;;;;;5116048;27;20801;-69
2022/11/15 00:50:04;;;;;;;22.50;15.30;;;9.80;99.90;;;;;;5116851;27;20460;-70
2022/11/15 00:52:32;;;;;;;38.63;19.00;;;9.80;99.90;;;;;;5114849;27;20991;-67
2022/11/15 00:54:59;;;;;;;20.17;17.03;;;9.80;99.90;;;;;;5121384;27;20473;-71
2022/11/15 00:57:26;;;;;;;26.63;16.30;;;9.80;99.90;;;;;;5120691;27;20524;-70
2022/11/15 00:59:53;;;;;;;20.73;16.67;;;9.90;99.90;;;;;;5121061;27;20456;-69
2022/11/15 01:02:20;;;;;;;25.70;16.80;;;9.90;99.90;;;;;;5122935;27;20460;-68
2022/11/15 01:04:49;;;;;;;23.13;17.53;;;9.90;99.90;;;;;;5117059;27;20648;-68
2022/11/15 01:07:16;;;;;;;19.07;17.00;;;10.00;99.90;;;;;;5120772;27;20460;-68
2022/11/15 01:09:45;;;;;;;25.90;17.00;;;10.00;99.90;;;;;;5116678;27;20464;-68
2022/11/15 01:12:12;;;;;;;19.60;16.03;;;10.00;99.90;;;;;;5114577;27;20492;-68
2022/11/15 01:14:39;;;;;;;18.10;16.20;;;10.00;99.90;;;;;;5106254;27;20448;-69
2022/11/15 01:17:06;;;;;;;24.73;17.10;;;10.00;99.90;;;;;;5120404;27;20460;-68
2022/11/15 01:19:33;;;;;;;19.10;16.80;;;10.00;99.90;;;;;;5111206;27;20472;-68
2022/11/15 01:22:00;;;;;;;23.30;15.83;;;10.00;99.90;;;;;;5123478;27;20457;-68
2022/11/15 01:24:27;;;;;;;23.10;17.20;;;9.90;99.90;;;;;;5118287;27;20480;-68
2022/11/15 01:26:55;;;;;;;17.53;15.43;;;9.90;99.90;;;;;;5122086;27;20463;-68
2022/11/15 01:29:23;;;;;;;26.50;16.80;;;10.00;99.90;;;;;;5114889;27;20823;-69
2022/11/15 01:31:49;;;;;;;22.23;14.80;;;10.10;99.90;;;;;;5115741;27;20520;-68
2022/11/15 01:34:16;;;;;;;21.80;16.20;;;10.10;99.90;;;;;;5114781;27;20465;-70
2022/11/15 01:36:43;;;;;;;18.43;15.20;;;10.10;99.90;;;;;;5124499;27;20459;-68
2022/11/15 01:39:12;;;;;;;23.73;16.10;;;10.10;99.90;;;;;;5119428;27;20518;-68
2022/11/15 01:41:39;;;;;;;16.63;15.03;;;10.20;99.90;;;;;;5112750;27;20461;-70
2022/11/15 01:44:44;;;;;;;18.57;15.03;;;10.30;99.90;;;;;;5122303;27;20464;-69
2022/11/15 01:47:15;;;;;;;21.53;13.97;;;10.30;99.90;;;;;;5119882;27;20542;-68
2022/11/15 01:49:51;;;;;;;17.27;15.40;;;10.20;99.90;;;;;;5121763;27;20471;-68
2022/11/15 01:52:21;;;;;;;29.33;16.10;;;10.20;99.90;;;;;;5120059;27;20499;-68
2022/11/15 01:54:51;;;;;;;18.13;14.17;;;10.20;99.90;;;;;;5121753;27;20526;-68
2022/11/15 01:57:18;;;;;;;24.73;15.50;;;10.10;99.90;;;;;;5118224;27;20463;-69
2022/11/15 01:59:48;;;;;;;19.63;14.70;;;10.10;99.90;;;;;;5114274;27;20463;-70
2022/11/15 02:02:16;;;;;;;24.47;14.43;;;10.00;99.90;;;;;;5125868;27;20492;-70
2022/11/15 02:04:44;;;;;;;17.47;15.60;;;10.00;99.90;;;;;;5118829;27;20480;-70
2022/11/15 02:07:13;;;;;;;20.73;14.40;;;9.90;99.90;;;;;;5124827;27;20463;-68
2022/11/15 02:09:40;;;;;;;19.93;15.07;;;9.90;99.90;;;;;;5112222;27;20473;-68
2022/11/15 02:12:09;;;;;;;16.37;14.00;;;9.90;99.90;;;;;;5119996;27;20476;-68
2022/11/15 02:14:38;;;;;;;17.70;14.80;;;9.90;99.90;;;;;;5117542;27;20464;-68
2022/11/15 02:17:22;;;;;;;22.10;15.77;;;9.90;99.90;;;;;;5119182;27;20461;-68
2022/11/15 02:20:10;;;;;;;21.10;15.20;;;10.00;99.90;;;;;;5121513;27;20457;-68
2022/11/15 02:22:47;;;;;;;18.17;14.07;;;10.10;99.90;;;;;;5118418;27;20531;-68
2022/11/15 02:25:40;;;;;;;18.17;13.57;;;10.10;99.90;;;;;;5125807;27;20459;-70
2022/11/15 02:28:22;;;;;;;24.53;15.20;;;10.20;99.90;;;;;;5118952;27;20471;-68
2022/11/15 02:30:56;;;;;;;15.27;13.10;;;10.30;99.90;;;;;;5123661;27;20823;-68
2022/11/15 02:33:34;;;;;;;17.77;13.63;;;10.30;99.90;;;;;;5111947;27;20461;-68
2022/11/15 02:36:02;;;;;;;16.57;13.17;;;10.40;99.90;;;;;;5116821;27;20830;-68
2022/11/15 02:38:36;;;;;;;23.50;13.90;;;10.50;99.90;;;;;;5117457;27;20713;-68
2022/11/15 02:41:07;;;;;;;23.77;14.00;;;10.60;99.90;;;;;;5120067;27;20533;-68
2022/11/15 02:43:57;;;;;;;18.57;12.57;;;10.70;99.90;;;;;;5121462;27;20456;-68
2022/11/15 02:49:13;;;;;;;17.73;13.17;;;10.80;99.90;;;;;;5121922;27;20942;-68
2022/11/15 02:51:41;;;;;;;22.80;13.30;;;10.80;99.90;;;;;;5118568;27;20584;-69
2022/11/15 02:54:11;;;;;;;23.33;14.60;;;10.90;99.90;;;;;;5118850;27;20959;-68
2022/11/15 02:56:39;;;;;;;16.90;12.97;;;10.90;99.90;;;;;;5120934;27;20539;-68
2022/11/15 02:59:20;;;;;;;18.53;12.37;;;11.00;99.90;;;;;;5115192;27;20488;-68
2022/11/15 03:02:03;;;;;;;23.73;14.20;;;11.00;99.90;;;;;;5117461;27;20468;-68
2022/11/15 03:04:39;;;;;;;13.50;12.10;;;11.00;99.90;;;;;;5115839;27;20492;-68
2022/11/15 03:07:12;;;;;;;14.70;13.20;;;11.00;99.90;;;;;;5125200;27;20898;-69
2022/11/15 03:09:43;;;;;;;19.77;12.73;;;11.00;99.90;;;;;;5117446;27;20505;-69
2022/11/15 03:12:16;;;;;;;16.47;13.37;;;11.00;99.90;;;;;;5112540;28;20652;-68
2022/11/15 03:14:52;;;;;;;19.27;11.83;;;11.00;99.90;;;;;;5118596;28;20456;-68
2022/11/15 03:17:28;;;;;;;14.47;12.10;;;11.10;99.90;;;;;;5117105;28;20814;-69
2022/11/15 03:19:57;;;;;;;24.90;13.07;;;11.10;99.90;;;;;;5112499;28;20467;-68
2022/11/15 03:22:28;;;;;;;23.17;12.97;;;11.10;99.90;;;;;;5121186;27;20483;-70
2022/11/15 03:24:59;;;;;;;15.93;13.47;;;11.10;99.90;;;;;;5114313;28;20461;-68
2022/11/15 03:27:32;;;;;;;14.87;12.43;;;11.10;99.90;;;;;;5117156;28;20456;-68
2022/11/15 03:30:01;;;;;;;29.10;13.20;;;11.20;99.90;;;;;;5115915;28;20464;-68
2022/11/15 03:32:34;;;;;;;19.83;13.07;;;11.10;99.90;;;;;;5126987;27;20483;-68
2022/11/15 03:35:05;;;;;;;22.33;12.57;;;11.10;99.90;;;;;;5124627;27;20465;-68
2022/11/15 03:37:37;;;;;;;18.87;12.93;;;11.10;99.90;;;;;;5120622;27;20473;-68
2022/11/15 03:40:05;;;;;;;19.27;13.33;;;11.10;99.90;;;;;;5127743;27;20476;-69
2022/11/15 03:42:37;;;;;;;15.50;12.37;;;11.20;99.90;;;;;;5121877;27;20892;-69
2022/11/15 03:45:11;;;;;;;17.87;13.00;;;11.20;99.90;;;;;;5120064;27;20464;-69
2022/11/15 03:47:42;;;;;;;21.37;12.63;;;11.20;99.90;;;;;;5121266;27;20542;-69
2022/11/15 03:50:12;;;;;;;15.50;13.53;;;11.30;99.90;;;;;;5123136;27;20449;-68
2022/11/15 03:52:41;;;;;;;17.37;11.80;;;11.30;99.90;;;;;;5120861;27;20487;-70
2022/11/15 03:55:11;;;;;;;21.77;13.47;;;11.40;99.90;;;;;;5122350;27;20464;-69
2022/11/15 03:57:38;;;;;;;15.60;12.40;;;11.40;99.90;;;;;;5126986;27;20876;-68
2022/11/15 04:00:06;;;;;;;17.13;12.60;;;11.40;99.90;;;;;;5118274;27;20980;-70
2022/11/15 04:02:33;;;;;;;19.93;12.80;;;11.40;99.90;;;;;;5118227;27;20464;-70
2022/11/15 04:05:02;;;;;;;22.20;12.43;;;11.40;99.90;;;;;;5118814;27;20688;-70
2022/11/15 04:07:29;;;;;;;18.37;11.97;;;11.40;99.90;;;;;;5113044;27;21019;-68
2022/11/15 04:10:05;;;;;;;15.70;12.23;;;11.50;99.90;;;;;;5123193;27;20954;-70
2022/11/15 04:12:32;;;;;;;13.57;12.13;;;11.50;99.90;;;;;;5123156;27;20514;-68
2022/11/15 04:15:08;;;;;;;15.27;11.93;;;11.50;99.90;;;;;;5119780;27;20473;-70
2022/11/15 04:17:39;;;;;;;13.07;11.67;;;11.50;99.90;;;;;;5117051;27;20460;-68
2022/11/15 04:25:40;;;;;;;17.87;11.43;;;11.60;99.90;;;;;;5116743;27;20486;-70
2022/11/15 04:28:07;;;;;;;13.93;11.67;;;11.60;99.90;;;;;;5121732;27;20468;-68
2022/11/15 04:30:34;;;;;;;11.80;10.70;;;11.50;99.90;;;;;;5116720;27;20487;-69
2022/11/15 04:33:01;;;;;;;12.03;10.93;;;11.50;99.90;;;;;;5115400;27;20485;-68
2022/11/15 04:35:29;;;;;;;14.50;10.80;;;11.60;99.90;;;;;;5118640;27;20460;-68
2022/11/15 04:37:57;;;;;;;12.40;11.40;;;11.60;99.90;;;;;;5122040;27;20460;-69
2022/11/15 04:40:24;;;;;;;13.80;10.60;;;11.50;99.90;;;;;;5120653;27;20485;-70
2022/11/15 04:42:52;;;;;;;11.77;10.70;;;11.50;99.90;;;;;;5121482;27;20448;-68
2022/11/15 04:45:20;;;;;;;14.07;10.93;;;11.50;99.90;;;;;;5122981;27;20464;-68
2022/11/15 04:47:49;;;;;;;14.03;10.87;;;11.50;99.90;;;;;;5121575;27;20448;-69
2022/11/15 04:50:17;;;;;;;17.07;11.27;;;11.60;99.90;;;;;;5124907;27;20983;-68
2022/11/15 04:52:51;;;;;;;10.77;9.90;;;11.60;99.90;;;;;;5121758;27;20512;-68
2022/11/15 04:55:19;;;;;;;13.33;10.87;;;11.70;99.90;;;;;;5120010;27;20503;-68
2022/11/15 04:57:46;;;;;;;12.43;11.17;;;11.70;99.90;;;;;;5119005;27;20465;-68
2022/11/15 05:00:16;;;;;;;11.90;10.90;;;11.70;99.90;;;;;;5120499;27;20554;-70
2022/11/15 05:05:26;;;;;;;11.23;10.50;;;11.80;99.90;;;;;;5113688;27;20482;-68
2022/11/15 05:07:54;;;;;;;12.27;11.00;;;11.80;99.90;;;;;;5122043;27;20799;-69
2022/11/15 05:10:21;;;;;;;11.40;10.40;;;11.80;99.90;;;;;;5117316;27;20457;-70
2022/11/15 05:12:48;;;;;;;12.03;10.60;;;11.80;99.90;;;;;;5116854;27;20495;-68
2022/11/15 05:15:15;;;;;;;12.50;11.30;;;11.80;99.90;;;;;;5119719;27;20468;-67
2022/11/15 05:17:42;;;;;;;10.83;10.03;;;11.80;99.90;;;;;;5111064;27;20465;-67
2022/11/15 05:20:10;;;;;;;10.50;9.70;;;11.80;99.90;;;;;;5118597;27;20828;-69
2022/11/15 05:22:37;;;;;;;11.97;11.07;;;11.80;99.90;;;;;;5119696;27;20474;-68
2022/11/15 05:25:06;;;;;;;12.63;11.57;;;11.80;99.90;;;;;;5114235;27;20801;-70
2022/11/15 05:27:35;;;;;;;12.87;12.03;;;11.80;99.90;;;;;;5116400;27;20490;-68
2022/11/15 05:30:02;;;;;;;13.67;12.67;;;11.90;99.90;;;;;;5116734;27;20553;-70
2022/11/15 05:32:29;;;;;;;14.20;13.00;;;11.90;99.90;;;;;;5120819;27;20856;-67
2022/11/15 05:34:56;;;;;;;15.13;13.80;;;11.90;99.90;;;;;;5118920;27;21289;-69
2022/11/15 05:37:23;;;;;;;15.40;14.10;;;11.80;99.90;;;;;;5121040;27;20491;-68
2022/11/15 05:39:50;;;;;;;13.97;12.87;;;11.80;99.90;;;;;;5113525;27;20480;-69
2022/11/15 05:42:19;;;;;;;13.93;12.93;;;11.70;99.90;;;;;;5122368;27;20468;-68
2022/11/15 05:44:49;;;;;;;14.93;13.67;;;11.60;99.90;;;;;;5113030;27;20487;-68
2022/11/15 05:47:20;;;;;;;14.50;13.40;;;11.50;99.90;;;;;;5109320;27;20471;-68
2022/11/15 05:49:48;;;;;;;13.90;13.00;;;11.60;99.90;;;;;;5118412;27;20831;-68
2022/11/15 05:52:18;;;;;;;14.20;13.27;;;11.50;99.90;;;;;;5117101;27;20507;-70
2022/11/15 05:54:45;;;;;;;17.67;15.83;;;11.60;99.90;;;;;;5112126;27;20464;-67
2022/11/15 05:57:11;;;;;;;13.50;12.60;;;11.60;99.90;;;;;;5116298;27;20460;-68
2022/11/15 05:59:40;;;;;;;12.43;11.60;;;11.60;99.90;;;;;;5109957;27;20501;-67
2022/11/15 06:02:07;;;;;;;12.43;11.30;;;11.60;99.90;;;;;;5118120;27;20465;-69
2022/11/15 06:04:34;;;;;;;13.90;12.33;;;11.60;99.90;;;;;;5121034;27;21069;-69
2022/11/15 06:07:01;;;;;;;12.60;11.60;;;11.60;99.90;;;;;;5110814;27;20468;-67
2022/11/15 06:09:28;;;;;;;11.20;10.30;;;11.60;99.90;;;;;;5117444;27;20962;-67
2022/11/15 06:11:55;;;;;;;11.63;10.53;;;11.60;99.90;;;;;;5115549;27;20464;-70
2022/11/15 06:14:22;;;;;;;17.27;12.93;;;11.60;99.90;;;;;;5116918;27;20832;-70
2022/11/15 06:16:51;;;;;;;18.87;15.87;;;11.60;99.90;;;;;;5117482;27;20465;-67
2022/11/15 06:19:18;;;;;;;13.40;12.10;;;11.70;99.90;;;;;;5124743;27;20460;-68
2022/11/15 06:21:45;;;;;;;11.90;10.70;;;11.60;99.90;;;;;;5114573;27;20528;-70
2022/11/15 06:24:11;;;;;;;12.50;10.40;;;11.60;99.90;;;;;;5111356;27;20457;-67
2022/11/15 06:26:38;;;;;;;11.20;10.50;;;11.70;99.90;;;;;;5105964;27;20456;-68
2022/11/15 06:29:05;;;;;;;11.27;10.43;;;11.70;99.90;;;;;;5121346;27;20468;-67
2022/11/15 06:31:32;;;;;;;11.47;9.83;;;11.70;99.90;;;;;;5112279;27;20461;-68
2022/11/15 06:34:00;;;;;;;10.97;10.13;;;11.70;99.90;;;;;;5114993;27;20501;-68
2022/11/15 06:36:27;;;;;;;9.20;8.60;;;11.80;99.90;;;;;;5110621;27;20461;-69
2022/11/15 06:38:54;;;;;;;9.10;8.50;;;11.80;99.90;;;;;;5114168;27;21003;-68
2022/11/15 06:41:21;;;;;;;11.70;10.60;;;11.80;99.90;;;;;;5114962;27;20808;-69
2022/11/15 06:43:48;;;;;;;15.57;14.50;;;12.00;99.90;;;;;;5117818;27;20551;-69
2022/11/15 06:46:15;;;;;;;16.67;15.57;;;12.10;99.90;;;;;;5107549;27;20489;-67
2022/11/15 06:48:42;;;;;;;18.73;17.67;;;12.00;99.90;;;;;;5120813;27;20464;-67
2022/11/15 06:51:11;;;;;;;20.13;18.93;;;11.90;99.90;;;;;;5119127;27;20480;-67
2022/11/15 06:53:38;;;;;;;20.43;19.20;;;11.90;99.90;;;;;;5113136;27;20874;-66
2022/11/15 06:56:07;;;;;;;20.00;18.90;;;11.70;99.90;;;;;;5116320;27;21031;-67
2022/11/15 06:58:35;;;;;;;19.63;18.43;;;11.60;99.90;;;;;;5118273;27;20456;-66
2022/11/15 07:01:03;;;;;;;20.33;19.03;;;11.40;99.90;;;;;;5120089;27;20483;-67
2022/11/15 07:03:30;;;;;;;18.60;17.60;;;11.30;99.90;;;;;;5114626;27;20465;-67
2022/11/15 07:05:58;;;;;;;18.03;17.03;;;11.10;99.90;;;;;;5112459;27;20515;-67
2022/11/15 07:08:29;;;;;;;17.60;16.70;;;11.10;99.90;;;;;;5112177;27;20468;-68
2022/11/15 07:10:59;;;;;;;18.40;17.40;;;11.00;99.90;;;;;;5114191;27;20867;-67
2022/11/15 07:13:26;;;;;;;18.00;17.10;;;11.00;99.90;;;;;;5120366;28;20564;-69
2022/11/15 07:15:53;;;;;;;18.47;17.10;;;11.10;99.90;;;;;;5114329;28;20879;-69
2022/11/15 07:18:20;;;;;;;20.03;18.83;;;11.10;99.90;;;;;;5112068;28;20911;-67
2022/11/15 07:20:47;;;;;;;18.40;17.30;;;11.20;99.90;;;;;;5117395;28;20520;-68
2022/11/15 07:23:14;;;;;;;18.10;17.10;;;11.10;99.90;;;;;;5112333;27;20457;-67
2022/11/15 07:25:42;;;;;;;18.90;17.90;;;11.20;99.90;;;;;;5117606;28;20454;-68
2022/11/15 07:28:09;;;;;;;18.60;17.67;;;11.20;99.90;;;;;;5118009;28;20464;-67
2022/11/15 07:30:37;;;;;;;18.87;17.97;;;11.30;99.90;;;;;;5114085;28;21007;-67
2022/11/15 07:33:04;;;;;;;18.83;17.83;;;11.30;99.90;;;;;;5116878;28;20484;-67
2022/11/15 07:35:32;;;;;;;18.40;17.40;;;11.30;99.90;;;;;;5119203;28;20465;-69
2022/11/15 07:38:00;;;;;;;19.17;18.17;;;11.40;99.90;;;;;;5117623;28;20632;-67
2022/11/15 07:40:28;;;;;;;18.90;17.90;;;11.40;99.90;;;;;;5112779;28;20484;-69
2022/11/15 07:43:01;;;;;;;18.00;17.10;;;11.40;99.90;;;;;;5117790;28;20826;-67
2022/11/15 07:45:27;;;;;;;17.90;17.00;;;11.30;99.90;;;;;;5115723;28;20460;-67
2022/11/15 07:47:56;;;;;;;17.73;16.83;;;11.30;99.90;;;;;;5110909;28;20617;-68
2022/11/15 07:50:23;;;;;;;17.80;16.90;;;11.40;99.90;;;;;;5119512;28;20504;-67
2022/11/15 07:52:55;;;;;;;17.53;16.63;;;11.30;99.90;;;;;;5119327;28;20932;-69
2022/11/15 07:55:23;;;;;;;17.23;16.33;;;11.40;99.90;;;;;;5117769;28;20464;-67
2022/11/15 07:57:50;;;;;;;17.37;16.47;;;11.40;99.90;;;;;;5113704;28;20991;-68
2022/11/15 08:00:19;;;;;;;17.97;16.97;;;11.40;99.90;;;;;;5115164;28;20826;-70
2022/11/15 08:02:46;;;;;;;17.03;16.23;;;11.40;99.90;;;;;;5111834;28;20462;-68
2022/11/15 08:05:13;;;;;;;17.30;16.30;;;11.40;99.90;;;;;;5111283;28;21059;-67
2022/11/15 08:07:41;;;;;;;17.03;16.20;;;11.50;99.90;;;;;;5110526;28;20465;-68
2022/11/15 08:10:09;;;;;;;16.87;15.97;;;11.60;99.90;;;;;;5119815;28;20468;-70
2022/11/15 08:12:36;;;;;;;16.70;15.80;;;11.60;99.90;;;;;;5108562;28;20468;-67
2022/11/15 08:15:02;;;;;;;17.57;16.57;;;11.60;99.90;;;;;;5114025;28;20460;-67
2022/11/15 08:17:32;;;;;;;17.27;16.37;;;11.50;99.90;;;;;;5115416;27;20944;-68
2022/11/15 08:20:00;;;;;;;17.67;16.77;;;11.50;99.90;;;;;;5113503;27;20470;-70
2022/11/15 08:22:26;;;;;;;17.70;16.70;;;11.50;99.90;;;;;;5120472;27;20465;-68
2022/11/15 08:24:53;;;;;;;17.13;16.13;;;11.60;99.90;;;;;;5116398;27;20488;-67
2022/11/15 08:27:21;;;;;;;16.50;15.60;;;11.60;99.90;;;;;;5115581;27;20971;-68
2022/11/15 08:29:49;;;;;;;17.00;16.10;;;11.60;99.90;;;;;;5110372;27;20457;-70
2022/11/15 08:32:17;;;;;;;17.10;16.00;;;11.60;99.90;;;;;;5121289;27;20457;-68
2022/11/15 08:34:46;;;;;;;16.40;15.50;;;11.50;99.90;;;;;;5127252;27;20602;-68
2022/11/15 08:37:13;;;;;;;16.30;15.23;;;11.30;99.90;;;;;;5124078;27;20878;-67
2022/11/15 08:39:40;;;;;;;16.43;15.53;;;11.30;99.90;;;;;;5123456;27;20472;-68
2022/11/15 08:42:07;;;;;;;16.50;15.60;;;11.30;99.90;;;;;;5118069;27;20982;-70
2022/11/15 08:44:34;;;;;;;16.47;14.90;;;11.20;99.90;;;;;;5119377;27;20457;-67
2022/11/15 08:47:00;;;;;;;16.20;15.20;;;11.30;99.90;;;;;;5119403;27;20944;-68
2022/11/15 08:49:27;;;;;;;15.40;14.40;;;11.30;99.90;;;;;;5124256;27;20544;-68
2022/11/15 08:51:55;;;;;;;15.40;14.53;;;11.40;99.90;;;;;;5117218;27;20460;-69
2022/11/15 08:54:22;;;;;;;14.90;14.10;;;11.50;99.90;;;;;;5118762;27;20507;-67
2022/11/15 08:56:49;;;;;;;14.17;13.40;;;11.60;99.90;;;;;;5118802;27;20981;-68
2022/11/15 08:59:16;;;;;;;14.53;13.80;;;11.60;99.90;;;;;;5119266;27;20803;-68
2022/11/15 09:01:42;;;;;;;14.10;13.30;;;11.70;99.90;;;;;;5118013;27;20456;-70
2022/11/15 09:04:10;;;;;;;13.40;12.70;;;11.80;99.90;;;;;;5118060;27;20637;-67
2022/11/15 09:06:37;;;;;;;14.00;13.30;;;11.80;99.90;;;;;;5114230;27;20522;-69
2022/11/15 09:09:05;;;;;;;16.63;15.07;;;11.90;99.90;;;;;;5112103;27;20449;-70
2022/11/15 09:11:32;;;;;;;16.23;14.60;;;12.00;99.90;;;;;;5106194;27;20517;-68
2022/11/15 09:13:59;;;;;;;11.90;11.30;;;12.00;99.90;;;;;;5117370;27;20484;-68
2022/11/15 09:16:27;;;;;;;12.57;11.70;;;12.00;99.90;;;;;;5110627;27;20886;-68
2022/11/15 09:18:54;;;;;;;18.30;14.40;;;12.00;99.90;;;;;;5112506;27;20503;-68
2022/11/15 09:21:22;;;;;;;13.20;12.30;;;12.10;99.90;;;;;;5115288;27;20467;-69
2022/11/15 09:23:51;;;;;;;17.43;15.67;;;12.10;99.90;;;;;;5123022;27;20834;-70
2022/11/15 09:26:19;;;;;;;14.07;13.13;;;12.10;99.90;;;;;;5118581;27;20828;-70
2022/11/15 09:28:46;;;;;;;14.43;13.13;;;12.10;99.90;;;;;;5110087;27;20445;-67
2022/11/15 09:31:13;;;;;;;12.10;11.50;;;12.20;99.90;;;;;;5114911;27;20472;-68
2022/11/15 09:33:40;;;;;;;12.90;12.03;;;12.20;99.90;;;;;;5114508;27;20857;-68
2022/11/15 09:36:08;;;;;;;15.00;13.90;;;12.10;99.90;;;;;;5116157;27;20460;-70
2022/11/15 09:38:36;;;;;;;13.43;12.40;;;12.20;99.90;;;;;;5118545;27;20453;-68
2022/11/15 09:41:31;;;;;;;13.80;12.70;;;12.30;99.90;;;;;;5117105;27;20867;-68
2022/11/15 09:44:12;;;;;;;14.07;13.27;;;12.30;99.90;;;;;;5119549;27;20468;-68
2022/11/15 09:46:50;;;;;;;15.13;14.03;;;12.40;99.90;;;;;;5116750;27;21016;-67
2022/11/15 09:49:19;;;;;;;15.97;14.87;;;12.40;99.90;;;;;;5106991;27;20468;-68
2022/11/15 09:51:48;;;;;;;18.00;16.47;;;12.40;99.90;;;;;;5118910;27;20459;-69
2022/11/15 09:54:26;;;;;;;16.20;15.10;;;12.40;99.90;;;;;;5122491;27;20500;-68
2022/11/15 09:56:57;;;;;;;15.40;14.20;;;12.40;99.90;;;;;;5119023;27;20460;-69
2022/11/15 09:59:47;;;;;;;15.80;14.80;;;12.40;99.90;;;;;;5117325;27;20472;-69
2022/11/15 10:02:32;;;;;;;15.07;14.27;;;12.40;99.90;;;;;;5118252;27;20523;-68
2022/11/15 10:05:00;;;;;;;15.90;14.80;;;12.40;99.90;;;;;;5121500;27;20485;-68
2022/11/15 10:07:32;;;;;;;15.87;14.60;;;12.40;99.90;;;;;;5124828;27;20529;-70
2022/11/15 10:10:05;;;;;;;16.50;14.97;;;12.40;99.90;;;;;;5116195;27;20460;-68
2022/11/15 10:12:33;;;;;;;16.60;15.50;;;12.50;99.90;;;;;;5122238;27;20464;-68
2022/11/15 10:15:05;;;;;;;15.93;14.93;;;12.50;99.90;;;;;;5119785;27;20549;-68
2022/11/15 10:17:56;;;;;;;17.17;14.47;;;12.60;99.90;;;;;;5117954;27;20459;-69
2022/11/15 10:20:26;;;;;;;20.40;15.70;;;12.60;99.90;;;;;;5118942;27;20995;-68
2022/11/15 10:22:56;;;;;;;16.90;14.97;;;12.60;99.90;;;;;;5124456;27;20444;-68
2022/11/15 10:25:26;;;;;;;15.77;14.87;;;12.60;99.90;;;;;;5114278;27;20491;-68
2022/11/15 10:27:59;;;;;;;16.40;15.03;;;12.70;99.90;;;;;;5119042;27;20463;-68
2022/11/15 10:30:33;;;;;;;15.33;14.43;;;12.70;99.90;;;;;;5106477;27;20470;-68
2022/11/15 10:33:12;;;;;;;25.60;15.00;;;12.80;99.90;;;;;;5111287;27;20470;-70
2022/11/15 10:35:39;;;;;;;16.60;14.93;;;12.80;99.90;;;;;;5114888;27;20471;-68
2022/11/15 10:38:08;;;;;;;16.17;14.93;;;12.90;99.90;;;;;;5118712;27;20821;-69
2022/11/15 10:40:35;;;;;;;16.50;15.40;;;13.20;99.90;;;;;;5115532;27;20481;-70
2022/11/15 10:43:15;;;;;;;17.37;16.27;;;13.60;99.90;;;;;;5108766;27;20572;-71
2022/11/15 10:45:43;;;;;;;17.27;16.17;;;14.00;99.90;;;;;;5110262;27;20445;-69
2022/11/15 10:48:27;;;;;;;16.87;15.77;;;14.40;99.90;;;;;;5118160;27;20544;-68
2022/11/15 10:50:56;;;;;;;16.67;15.80;;;15.20;99.90;;;;;;5113712;27;20463;-68
2022/11/15 10:53:27;;;;;;;17.13;16.00;;;15.60;99.90;;;;;;5113780;27;20464;-68
2022/11/15 10:55:57;;;;;;;16.63;15.63;;;16.00;99.90;;;;;;5120871;27;20846;-69
2022/11/15 10:58:33;;;;;;;16.70;15.80;;;16.20;99.90;;;;;;5120519;27;20460;-70
2022/11/15 11:01:10;;;;;;;16.60;15.40;;;16.30;99.90;;;;;;5115125;27;20459;-69
2022/11/15 11:03:39;;;;;;;16.70;15.50;;;16.40;99.90;;;;;;5116707;27;20465;-68
2022/11/15 11:06:10;;;;;;;17.03;15.93;;;16.50;99.90;;;;;;5118182;27;20572;-69
2022/11/15 11:08:37;;;;;;;17.00;16.00;;;16.60;99.90;;;;;;5116287;27;20527;-69
2022/11/15 11:11:05;;;;;;;16.93;15.80;;;16.40;99.90;;;;;;5118035;27;20460;-68
2022/11/15 11:13:36;;;;;;;17.17;16.10;;;16.20;99.90;;;;;;5108695;28;20576;-68
2022/11/15 11:16:33;;;;;;;16.70;15.70;;;15.80;99.90;;;;;;5113728;27;20555;-68
2022/11/15 11:19:09;;;;;;;15.57;14.80;;;15.80;99.90;;;;;;5112846;28;20993;-70
2022/11/15 11:21:48;;;;;;;16.20;15.30;;;16.00;99.90;;;;;;5107867;27;21165;-70
2022/11/15 11:24:25;;;;;;;16.60;15.60;;;15.90;99.90;;;;;;5113991;28;20482;-68
2022/11/15 11:27:04;;;;;;;19.10;17.63;;;15.80;99.90;;;;;;5117711;27;20464;-68
2022/11/15 11:29:45;;;;;;;15.97;15.07;;;15.70;99.90;;;;;;5119000;28;20471;-68
2022/11/15 11:32:27;;;;;;;16.07;15.27;;;15.70;99.90;;;;;;5120919;27;20460;-68
2022/11/15 11:35:02;;;;;;;19.10;17.77;;;15.80;99.90;;;;;;5112936;28;20463;-69
2022/11/15 11:37:38;;;;;;;17.00;16.00;;;15.90;99.90;;;;;;5111431;27;20475;-68
2022/11/15 11:40:16;;;;;;;16.70;15.87;;;15.90;99.90;;;;;;5120283;28;20475;-68
2022/11/15 11:42:57;;;;;;;15.80;15.00;;;16.00;99.90;;;;;;5118326;27;20457;-70
2022/11/15 11:45:49;;;;;;;17.07;15.80;;;16.10;99.90;;;;;;5111008;28;20456;-68
2022/11/15 11:48:28;;;;;;;18.03;16.93;;;16.00;99.90;;;;;;5114432;28;20461;-68
2022/11/15 11:51:00;;;;;;;16.73;15.93;;;16.10;99.90;;;;;;5113649;27;20484;-68
2022/11/15 11:53:32;;;;;;;16.73;15.60;;;15.80;99.90;;;;;;5119459;27;20452;-67
2022/11/15 11:56:03;;;;;;;16.93;15.93;;;15.70;99.90;;;;;;5120410;27;20489;-70
2022/11/15 11:58:36;;;;;;;16.40;15.40;;;15.70;99.90;;;;;;5116251;27;20456;-67
2022/11/15 12:01:17;;;;;;;18.20;17.10;;;15.70;99.90;;;;;;5122741;27;20459;-68
2022/11/15 12:03:48;;;;;;;16.27;15.13;;;15.90;99.90;;;;;;5121160;27;20785;-70
2022/11/15 12:06:24;;;;;;;16.40;15.50;;;16.00;99.90;;;;;;5118004;27;20514;-69
2022/11/15 12:08:54;;;;;;;16.97;15.87;;;16.50;99.90;;;;;;5121577;27;20460;-68
2022/11/15 12:11:27;;;;;;;17.47;16.17;;;17.10;99.90;;;;;;5111902;27;20464;-68
2022/11/15 12:13:59;;;;;;;16.80;15.80;;;17.20;99.90;;;;;;5115725;27;20499;-68
2022/11/15 12:16:29;;;;;;;16.93;16.03;;;17.30;99.90;;;;;;5117531;27;20479;-68
2022/11/15 12:18:59;;;;;;;16.77;15.63;;;16.90;99.90;;;;;;5119218;27;20487;-70
2022/11/15 12:21:35;;;;;;;17.03;16.00;;;16.60;99.90;;;;;;5116917;27;20463;-68
2022/11/15 12:24:06;;;;;;;16.20;15.20;;;16.70;99.90;;;;;;5119668;27;20463;-69
2022/11/15 12:26:38;;;;;;;20.63;19.00;;;17.00;99.90;;;;;;5116037;27;20702;-68
2022/11/15 12:29:11;;;;;;;16.60;15.37;;;17.70;99.90;;;;;;5117537;27;20456;-68
2022/11/15 12:31:43;;;;;;;19.87;16.10;;;17.80;99.90;;;;;;5111654;27;20475;-70
2022/11/15 12:34:42;;;;;;;17.77;16.40;;;17.50;99.90;;;;;;5112834;27;20473;-68
2022/11/15 12:37:35;;;;;;;21.83;17.63;;;17.30;99.90;;;;;;5119649;27;20460;-68
2022/11/15 12:40:19;;;;;;;19.43;16.20;;;16.90;99.90;;;;;;5121054;27;20472;-70
2022/11/15 12:43:00;;;;;;;20.97;16.57;;;16.40;99.90;;;;;;5122536;27;20949;-68
2022/11/15 12:45:29;;;;;;;17.30;15.90;;;16.20;99.90;;;;;;5113841;27;20981;-70
2022/11/15 12:48:37;;;;;;;17.90;16.07;;;16.10;99.90;;;;;;5120871;27;20858;-70
2022/11/15 12:51:04;;;;;;;17.23;16.13;;;16.00;99.90;;;;;;5116383;27;20464;-69
2022/11/15 12:53:33;;;;;;;18.30;16.63;;;16.10;99.90;;;;;;5118055;27;20551;-69
2022/11/15 12:56:20;;;;;;;17.87;16.33;;;16.10;99.90;;;;;;5115257;27;20485;-68